sensor_id;sensor_type;location;lat;lon;timestamp;P1;durP1;ratioP1;P2;durP2;ratioP2
10226;SDS011;15634;48.766;2.272;2023-12-22T00:02:20;16.55;;;4.13;;
10226;SDS011;15634;48.766;2.272;2023-12-22T00:04:48;13.25;;;3.53;;
10226;SDS011;15634;48.766;2.272;2023-12-22T00:07:14;15.23;;;4.78;;
10226;SDS011;15634;48.766;2.272;2023-12-22T00:09:40;15.68;;;3.42;;
10226;SDS011;15634;48.766;2.272;2023-12-22T00:12:06;13.57;;;3.83;;
10226;SDS011;15634;48.766;2.272;2023-12-22T00:14:31;14.50;;;3.63;;
10226;SDS011;15634;48.766;2.272;2023-12-22T00:16:57;13.70;;;4.13;;
10226;SDS011;15634;48.766;2.272;2023-12-22T00:19:22;16.75;;;3.65;;
10226;SDS011;15634;48.766;2.272;2023-12-22T00:21:48;19.42;;;3.92;;
10226;SDS011;15634;48.766;2.272;2023-12-22T00:24:14;17.02;;;4.05;;
10226;SDS011;15634;48.766;2.272;2023-12-22T00:26:40;20.05;;;4.57;;
10226;SDS011;15634;48.766;2.272;2023-12-22T00:29:06;16.83;;;4.30;;
10226;SDS011;15634;48.766;2.272;2023-12-22T00:31:32;18.02;;;3.75;;
10226;SDS011;15634;48.766;2.272;2023-12-22T00:33:57;15.65;;;4.07;;
10226;SDS011;15634;48.766;2.272;2023-12-22T00:36:23;19.13;;;4.47;;
10226;SDS011;15634;48.766;2.272;2023-12-22T00:38:50;12.57;;;3.97;;
10226;SDS011;15634;48.766;2.272;2023-12-22T00:41:16;15.88;;;4.60;;
10226;SDS011;15634;48.766;2.272;2023-12-22T00:43:42;18.85;;;4.38;;
10226;SDS011;15634;48.766;2.272;2023-12-22T00:46:08;20.70;;;4.35;;
10226;SDS011;15634;48.766;2.272;2023-12-22T00:48:34;21.33;;;4.70;;
10226;SDS011;15634;48.766;2.272;2023-12-22T00:51:00;22.15;;;4.65;;
10226;SDS011;15634;48.766;2.272;2023-12-22T00:53:26;16.15;;;4.28;;
10226;SDS011;15634;48.766;2.272;2023-12-22T00:55:51;19.05;;;4.00;;
10226;SDS011;15634;48.766;2.272;2023-12-22T00:58:17;17.77;;;4.35;;
10226;SDS011;15634;48.766;2.272;2023-12-22T01:00:43;17.02;;;3.42;;
10226;SDS011;15634;48.766;2.272;2023-12-22T01:03:09;16.27;;;4.10;;
10226;SDS011;15634;48.766;2.272;2023-12-22T01:05:36;13.40;;;3.40;;
10226;SDS011;15634;48.766;2.272;2023-12-22T01:08:03;21.45;;;4.38;;
10226;SDS011;15634;48.766;2.272;2023-12-22T01:10:29;16.00;;;4.20;;
10226;SDS011;15634;48.766;2.272;2023-12-22T01:12:55;17.05;;;4.63;;
10226;SDS011;15634;48.766;2.272;2023-12-22T01:15:20;16.80;;;4.18;;
10226;SDS011;15634;48.766;2.272;2023-12-22T01:17:47;15.52;;;3.83;;
10226;SDS011;15634;48.766;2.272;2023-12-22T01:20:13;23.33;;;4.57;;
10226;SDS011;15634;48.766;2.272;2023-12-22T01:22:38;20.50;;;4.93;;
10226;SDS011;15634;48.766;2.272;2023-12-22T01:25:05;15.50;;;4.38;;
10226;SDS011;15634;48.766;2.272;2023-12-22T01:27:31;17.20;;;4.47;;
10226;SDS011;15634;48.766;2.272;2023-12-22T01:29:57;14.50;;;3.75;;
10226;SDS011;15634;48.766;2.272;2023-12-22T01:32:23;16.27;;;3.45;;
10226;SDS011;15634;48.766;2.272;2023-12-22T01:34:49;25.20;;;4.63;;
10226;SDS011;15634;48.766;2.272;2023-12-22T01:37:15;19.10;;;3.92;;
10226;SDS011;15634;48.766;2.272;2023-12-22T01:39:41;15.05;;;3.83;;
10226;SDS011;15634;48.766;2.272;2023-12-22T01:42:07;15.10;;;3.67;;
10226;SDS011;15634;48.766;2.272;2023-12-22T01:44:33;13.75;;;3.60;;
10226;SDS011;15634;48.766;2.272;2023-12-22T01:46:59;14.25;;;3.78;;
10226;SDS011;15634;48.766;2.272;2023-12-22T01:49:25;12.63;;;2.83;;
10226;SDS011;15634;48.766;2.272;2023-12-22T01:51:51;14.82;;;3.45;;
10226;SDS011;15634;48.766;2.272;2023-12-22T01:54:17;14.63;;;3.33;;
10226;SDS011;15634;48.766;2.272;2023-12-22T01:56:44;17.13;;;3.45;;
10226;SDS011;15634;48.766;2.272;2023-12-22T01:59:10;14.05;;;3.22;;
10226;SDS011;15634;48.766;2.272;2023-12-22T02:01:37;12.45;;;3.83;;
10226;SDS011;15634;48.766;2.272;2023-12-22T02:04:03;9.18;;;2.97;;
10226;SDS011;15634;48.766;2.272;2023-12-22T02:06:30;11.20;;;3.03;;
10226;SDS011;15634;48.766;2.272;2023-12-22T02:08:57;14.73;;;3.70;;
10226;SDS011;15634;48.766;2.272;2023-12-22T02:11:23;14.57;;;3.35;;
10226;SDS011;15634;48.766;2.272;2023-12-22T02:13:49;7.70;;;3.10;;
10226;SDS011;15634;48.766;2.272;2023-12-22T02:18:46;14.80;;;4.20;;
10226;SDS011;15634;48.766;2.272;2023-12-22T02:21:13;12.23;;;3.20;;
10226;SDS011;15634;48.766;2.272;2023-12-22T02:23:39;13.75;;;3.72;;
10226;SDS011;15634;48.766;2.272;2023-12-22T02:26:41;12.18;;;2.83;;
10226;SDS011;15634;48.766;2.272;2023-12-22T02:28:57;8.93;;;3.50;;
10226;SDS011;15634;48.766;2.272;2023-12-22T02:31:36;14.77;;;3.85;;
10226;SDS011;15634;48.766;2.272;2023-12-22T02:34:04;10.50;;;2.92;;
10226;SDS011;15634;48.766;2.272;2023-12-22T02:36:34;12.75;;;3.47;;
10226;SDS011;15634;48.766;2.272;2023-12-22T02:39:02;10.35;;;3.28;;
10226;SDS011;15634;48.766;2.272;2023-12-22T02:41:29;14.40;;;3.20;;
10226;SDS011;15634;48.766;2.272;2023-12-22T02:43:54;13.93;;;3.65;;
10226;SDS011;15634;48.766;2.272;2023-12-22T02:46:20;11.90;;;3.40;;
10226;SDS011;15634;48.766;2.272;2023-12-22T02:48:46;16.00;;;4.15;;
10226;SDS011;15634;48.766;2.272;2023-12-22T02:51:12;13.27;;;3.65;;
10226;SDS011;15634;48.766;2.272;2023-12-22T02:53:38;11.60;;;3.42;;
10226;SDS011;15634;48.766;2.272;2023-12-22T02:56:04;12.27;;;2.97;;
10226;SDS011;15634;48.766;2.272;2023-12-22T02:58:30;14.00;;;3.92;;
10226;SDS011;15634;48.766;2.272;2023-12-22T03:00:56;15.02;;;3.35;;
10226;SDS011;15634;48.766;2.272;2023-12-22T03:03:22;10.70;;;3.20;;
10226;SDS011;15634;48.766;2.272;2023-12-22T03:05:47;10.60;;;3.67;;
10226;SDS011;15634;48.766;2.272;2023-12-22T03:08:13;14.85;;;3.47;;
10226;SDS011;15634;48.766;2.272;2023-12-22T03:10:39;18.48;;;3.28;;
10226;SDS011;15634;48.766;2.272;2023-12-22T03:13:05;11.68;;;3.22;;
10226;SDS011;15634;48.766;2.272;2023-12-22T03:15:31;16.73;;;4.20;;
10226;SDS011;15634;48.766;2.272;2023-12-22T03:17:57;11.27;;;3.33;;
10226;SDS011;15634;48.766;2.272;2023-12-22T03:20:22;16.00;;;3.38;;
10226;SDS011;15634;48.766;2.272;2023-12-22T03:22:48;16.02;;;4.20;;
10226;SDS011;15634;48.766;2.272;2023-12-22T03:25:14;11.52;;;3.30;;
10226;SDS011;15634;48.766;2.272;2023-12-22T03:27:40;14.90;;;3.40;;
10226;SDS011;15634;48.766;2.272;2023-12-22T03:30:06;10.70;;;3.28;;
10226;SDS011;15634;48.766;2.272;2023-12-22T03:32:32;12.18;;;3.75;;
10226;SDS011;15634;48.766;2.272;2023-12-22T03:34:58;7.88;;;3.00;;
10226;SDS011;15634;48.766;2.272;2023-12-22T03:37:24;13.07;;;3.47;;
10226;SDS011;15634;48.766;2.272;2023-12-22T03:39:50;15.85;;;3.63;;
10226;SDS011;15634;48.766;2.272;2023-12-22T03:42:16;14.05;;;3.30;;
10226;SDS011;15634;48.766;2.272;2023-12-22T03:44:41;15.13;;;3.55;;
10226;SDS011;15634;48.766;2.272;2023-12-22T03:47:07;10.90;;;3.38;;
10226;SDS011;15634;48.766;2.272;2023-12-22T03:49:33;12.00;;;3.40;;
10226;SDS011;15634;48.766;2.272;2023-12-22T03:51:59;13.65;;;3.63;;
10226;SDS011;15634;48.766;2.272;2023-12-22T03:54:25;13.10;;;2.88;;
10226;SDS011;15634;48.766;2.272;2023-12-22T03:56:52;13.80;;;3.25;;
10226;SDS011;15634;48.766;2.272;2023-12-22T03:59:17;11.52;;;3.15;;
10226;SDS011;15634;48.766;2.272;2023-12-22T04:01:43;11.43;;;3.00;;
10226;SDS011;15634;48.766;2.272;2023-12-22T04:04:09;13.27;;;2.83;;
10226;SDS011;15634;48.766;2.272;2023-12-22T04:06:38;15.30;;;3.40;;
10226;SDS011;15634;48.766;2.272;2023-12-22T04:09:05;9.52;;;3.05;;
10226;SDS011;15634;48.766;2.272;2023-12-22T04:11:31;15.38;;;3.30;;
10226;SDS011;15634;48.766;2.272;2023-12-22T04:13:57;10.20;;;3.50;;
10226;SDS011;15634;48.766;2.272;2023-12-22T04:16:23;12.75;;;3.60;;
10226;SDS011;15634;48.766;2.272;2023-12-22T04:18:49;13.55;;;3.45;;
10226;SDS011;15634;48.766;2.272;2023-12-22T04:21:15;14.40;;;3.55;;
10226;SDS011;15634;48.766;2.272;2023-12-22T04:23:41;14.38;;;3.60;;
10226;SDS011;15634;48.766;2.272;2023-12-22T04:26:07;10.20;;;2.72;;
10226;SDS011;15634;48.766;2.272;2023-12-22T04:28:32;11.73;;;3.08;;
10226;SDS011;15634;48.766;2.272;2023-12-22T04:30:58;9.93;;;2.90;;
10226;SDS011;15634;48.766;2.272;2023-12-22T04:33:23;14.10;;;3.42;;
10226;SDS011;15634;48.766;2.272;2023-12-22T04:35:49;13.50;;;2.88;;
10226;SDS011;15634;48.766;2.272;2023-12-22T04:38:15;18.23;;;3.33;;
10226;SDS011;15634;48.766;2.272;2023-12-22T04:40:41;10.32;;;2.90;;
10226;SDS011;15634;48.766;2.272;2023-12-22T04:43:07;12.63;;;2.83;;
10226;SDS011;15634;48.766;2.272;2023-12-22T04:45:33;8.93;;;2.42;;
10226;SDS011;15634;48.766;2.272;2023-12-22T04:47:59;13.25;;;2.88;;
10226;SDS011;15634;48.766;2.272;2023-12-22T04:50:24;12.32;;;2.75;;
10226;SDS011;15634;48.766;2.272;2023-12-22T04:52:50;10.23;;;2.35;;
10226;SDS011;15634;48.766;2.272;2023-12-22T04:55:15;10.18;;;2.90;;
10226;SDS011;15634;48.766;2.272;2023-12-22T04:57:41;10.30;;;2.83;;
10226;SDS011;15634;48.766;2.272;2023-12-22T05:00:07;11.77;;;2.83;;
10226;SDS011;15634;48.766;2.272;2023-12-22T05:02:33;12.38;;;2.75;;
10226;SDS011;15634;48.766;2.272;2023-12-22T05:04:59;8.45;;;2.40;;
10226;SDS011;15634;48.766;2.272;2023-12-22T05:07:26;10.38;;;2.65;;
10226;SDS011;15634;48.766;2.272;2023-12-22T05:09:52;7.30;;;2.15;;
10226;SDS011;15634;48.766;2.272;2023-12-22T05:12:19;13.32;;;2.65;;
10226;SDS011;15634;48.766;2.272;2023-12-22T05:14:45;12.00;;;2.35;;
10226;SDS011;15634;48.766;2.272;2023-12-22T05:17:11;8.32;;;2.42;;
10226;SDS011;15634;48.766;2.272;2023-12-22T05:19:37;9.95;;;2.67;;
10226;SDS011;15634;48.766;2.272;2023-12-22T05:22:03;9.35;;;2.42;;
10226;SDS011;15634;48.766;2.272;2023-12-22T05:24:29;12.48;;;2.50;;
10226;SDS011;15634;48.766;2.272;2023-12-22T05:26:55;13.02;;;2.58;;
10226;SDS011;15634;48.766;2.272;2023-12-22T05:29:20;12.27;;;2.42;;
10226;SDS011;15634;48.766;2.272;2023-12-22T05:31:46;8.65;;;2.08;;
10226;SDS011;15634;48.766;2.272;2023-12-22T05:34:12;9.52;;;2.63;;
10226;SDS011;15634;48.766;2.272;2023-12-22T05:36:38;7.90;;;2.25;;
10226;SDS011;15634;48.766;2.272;2023-12-22T05:39:03;14.25;;;6.45;;
10226;SDS011;15634;48.766;2.272;2023-12-22T05:41:29;10.63;;;3.22;;
10226;SDS011;15634;48.766;2.272;2023-12-22T05:43:55;8.20;;;1.88;;
10226;SDS011;15634;48.766;2.272;2023-12-22T05:46:21;5.78;;;1.80;;
10226;SDS011;15634;48.766;2.272;2023-12-22T05:48:47;8.45;;;1.88;;
10226;SDS011;15634;48.766;2.272;2023-12-22T05:51:13;6.75;;;2.03;;
10226;SDS011;15634;48.766;2.272;2023-12-22T05:53:39;10.55;;;1.88;;
10226;SDS011;15634;48.766;2.272;2023-12-22T05:56:06;5.93;;;1.70;;
10226;SDS011;15634;48.766;2.272;2023-12-22T05:58:42;4.65;;;1.55;;
10226;SDS011;15634;48.766;2.272;2023-12-22T06:01:13;7.35;;;1.65;;
10226;SDS011;15634;48.766;2.272;2023-12-22T06:03:39;4.40;;;2.28;;
10226;SDS011;15634;48.766;2.272;2023-12-22T06:06:05;9.82;;;4.70;;
10226;SDS011;15634;48.766;2.272;2023-12-22T06:08:31;8.18;;;2.83;;
10226;SDS011;15634;48.766;2.272;2023-12-22T06:10:57;5.78;;;2.00;;
10226;SDS011;15634;48.766;2.272;2023-12-22T06:13:22;3.85;;;2.13;;
10226;SDS011;15634;48.766;2.272;2023-12-22T06:15:49;5.15;;;1.80;;
10226;SDS011;15634;48.766;2.272;2023-12-22T06:18:15;7.65;;;2.42;;
10226;SDS011;15634;48.766;2.272;2023-12-22T06:20:41;9.80;;;1.85;;
10226;SDS011;15634;48.766;2.272;2023-12-22T06:23:07;5.07;;;1.75;;
10226;SDS011;15634;48.766;2.272;2023-12-22T06:25:32;9.10;;;2.40;;
10226;SDS011;15634;48.766;2.272;2023-12-22T06:27:58;8.57;;;2.15;;
10226;SDS011;15634;48.766;2.272;2023-12-22T06:30:24;8.70;;;2.40;;
10226;SDS011;15634;48.766;2.272;2023-12-22T06:32:49;12.10;;;2.35;;
10226;SDS011;15634;48.766;2.272;2023-12-22T06:35:15;8.88;;;2.42;;
10226;SDS011;15634;48.766;2.272;2023-12-22T06:37:41;10.18;;;2.38;;
10226;SDS011;15634;48.766;2.272;2023-12-22T06:40:07;9.05;;;2.30;;
10226;SDS011;15634;48.766;2.272;2023-12-22T06:42:33;8.55;;;2.20;;
10226;SDS011;15634;48.766;2.272;2023-12-22T06:44:59;6.03;;;2.03;;
10226;SDS011;15634;48.766;2.272;2023-12-22T06:47:25;7.20;;;2.15;;
10226;SDS011;15634;48.766;2.272;2023-12-22T06:49:52;10.82;;;3.08;;
10226;SDS011;15634;48.766;2.272;2023-12-22T06:52:18;12.40;;;2.60;;
10226;SDS011;15634;48.766;2.272;2023-12-22T06:54:43;5.80;;;2.03;;
10226;SDS011;15634;48.766;2.272;2023-12-22T06:57:09;6.43;;;2.17;;
10226;SDS011;15634;48.766;2.272;2023-12-22T06:59:35;6.57;;;2.22;;
10226;SDS011;15634;48.766;2.272;2023-12-22T07:02:01;8.45;;;2.28;;
10226;SDS011;15634;48.766;2.272;2023-12-22T07:07:28;6.50;;;2.35;;
10226;SDS011;15634;48.766;2.272;2023-12-22T07:09:54;7.85;;;2.22;;
10226;SDS011;15634;48.766;2.272;2023-12-22T07:12:20;8.48;;;2.20;;
10226;SDS011;15634;48.766;2.272;2023-12-22T07:14:46;6.40;;;1.83;;
10226;SDS011;15634;48.766;2.272;2023-12-22T07:17:12;5.68;;;1.88;;
10226;SDS011;15634;48.766;2.272;2023-12-22T07:19:38;8.80;;;2.55;;
10226;SDS011;15634;48.766;2.272;2023-12-22T07:22:04;7.45;;;2.15;;
10226;SDS011;15634;48.766;2.272;2023-12-22T07:24:30;8.30;;;1.92;;
10226;SDS011;15634;48.766;2.272;2023-12-22T07:26:56;8.05;;;2.45;;
10226;SDS011;15634;48.766;2.272;2023-12-22T07:29:21;7.72;;;2.33;;
10226;SDS011;15634;48.766;2.272;2023-12-22T07:31:47;10.25;;;2.28;;
10226;SDS011;15634;48.766;2.272;2023-12-22T07:34:13;5.45;;;1.92;;
10226;SDS011;15634;48.766;2.272;2023-12-22T07:36:40;5.35;;;1.90;;
10226;SDS011;15634;48.766;2.272;2023-12-22T07:39:05;7.82;;;2.30;;
10226;SDS011;15634;48.766;2.272;2023-12-22T07:41:32;5.88;;;1.80;;
10226;SDS011;15634;48.766;2.272;2023-12-22T07:43:57;5.93;;;1.60;;
10226;SDS011;15634;48.766;2.272;2023-12-22T07:46:23;5.07;;;1.70;;
10226;SDS011;15634;48.766;2.272;2023-12-22T07:48:49;6.10;;;1.98;;
10226;SDS011;15634;48.766;2.272;2023-12-22T07:51:15;6.18;;;1.80;;
10226;SDS011;15634;48.766;2.272;2023-12-22T07:53:41;4.72;;;2.03;;
10226;SDS011;15634;48.766;2.272;2023-12-22T07:56:08;5.57;;;1.77;;
10226;SDS011;15634;48.766;2.272;2023-12-22T07:58:35;3.42;;;1.73;;
10226;SDS011;15634;48.766;2.272;2023-12-22T08:01:01;6.60;;;2.22;;
10226;SDS011;15634;48.766;2.272;2023-12-22T08:03:28;3.10;;;1.77;;
10226;SDS011;15634;48.766;2.272;2023-12-22T08:05:53;2.75;;;1.52;;
10226;SDS011;15634;48.766;2.272;2023-12-22T08:08:19;4.15;;;1.67;;
10226;SDS011;15634;48.766;2.272;2023-12-22T08:10:45;3.50;;;1.63;;
10226;SDS011;15634;48.766;2.272;2023-12-22T08:13:11;4.25;;;1.60;;
10226;SDS011;15634;48.766;2.272;2023-12-22T08:15:37;4.22;;;2.00;;
10226;SDS011;15634;48.766;2.272;2023-12-22T08:18:03;4.22;;;2.13;;
10226;SDS011;15634;48.766;2.272;2023-12-22T08:20:29;4.57;;;2.20;;
10226;SDS011;15634;48.766;2.272;2023-12-22T08:22:55;4.18;;;1.77;;
10226;SDS011;15634;48.766;2.272;2023-12-22T08:25:20;4.22;;;1.67;;
10226;SDS011;15634;48.766;2.272;2023-12-22T08:27:46;5.63;;;1.50;;
10226;SDS011;15634;48.766;2.272;2023-12-22T08:30:12;8.05;;;1.52;;
10226;SDS011;15634;48.766;2.272;2023-12-22T08:32:39;4.18;;;1.63;;
10226;SDS011;15634;48.766;2.272;2023-12-22T08:35:05;8.23;;;1.73;;
10226;SDS011;15634;48.766;2.272;2023-12-22T08:37:31;6.75;;;2.00;;
10226;SDS011;15634;48.766;2.272;2023-12-22T08:39:57;6.28;;;2.80;;
10226;SDS011;15634;48.766;2.272;2023-12-22T08:42:23;7.68;;;1.92;;
10226;SDS011;15634;48.766;2.272;2023-12-22T08:44:49;4.82;;;1.83;;
10226;SDS011;15634;48.766;2.272;2023-12-22T08:47:15;3.40;;;1.35;;
10226;SDS011;15634;48.766;2.272;2023-12-22T08:49:41;7.55;;;1.92;;
10226;SDS011;15634;48.766;2.272;2023-12-22T08:52:07;4.45;;;1.52;;
10226;SDS011;15634;48.766;2.272;2023-12-22T08:54:33;5.97;;;2.00;;
10226;SDS011;15634;48.766;2.272;2023-12-22T08:57:00;4.78;;;1.67;;
10226;SDS011;15634;48.766;2.272;2023-12-22T08:59:26;5.47;;;1.77;;
10226;SDS011;15634;48.766;2.272;2023-12-22T09:01:52;3.60;;;1.67;;
10226;SDS011;15634;48.766;2.272;2023-12-22T09:04:18;6.00;;;1.50;;
10226;SDS011;15634;48.766;2.272;2023-12-22T09:06:47;6.15;;;1.58;;
10226;SDS011;15634;48.766;2.272;2023-12-22T09:09:13;5.15;;;1.70;;
10226;SDS011;15634;48.766;2.272;2023-12-22T09:11:39;4.07;;;1.63;;
10226;SDS011;15634;48.766;2.272;2023-12-22T09:14:05;6.07;;;2.22;;
10226;SDS011;15634;48.766;2.272;2023-12-22T09:16:34;4.22;;;1.98;;
10226;SDS011;15634;48.766;2.272;2023-12-22T09:19:01;7.03;;;2.00;;
10226;SDS011;15634;48.766;2.272;2023-12-22T09:21:27;4.35;;;1.80;;
10226;SDS011;15634;48.766;2.272;2023-12-22T09:23:53;10.10;;;2.03;;
10226;SDS011;15634;48.766;2.272;2023-12-22T09:26:19;9.00;;;1.92;;
10226;SDS011;15634;48.766;2.272;2023-12-22T09:28:45;7.07;;;2.10;;
10226;SDS011;15634;48.766;2.272;2023-12-22T09:31:11;6.55;;;1.85;;
10226;SDS011;15634;48.766;2.272;2023-12-22T09:33:41;5.43;;;1.80;;
10226;SDS011;15634;48.766;2.272;2023-12-22T09:36:07;8.32;;;4.50;;
10226;SDS011;15634;48.766;2.272;2023-12-22T09:38:34;6.03;;;2.20;;
10226;SDS011;15634;48.766;2.272;2023-12-22T09:41:00;6.40;;;2.58;;
10226;SDS011;15634;48.766;2.272;2023-12-22T09:43:26;6.05;;;2.03;;
10226;SDS011;15634;48.766;2.272;2023-12-22T09:45:52;9.05;;;2.60;;
10226;SDS011;15634;48.766;2.272;2023-12-22T09:48:18;4.78;;;2.08;;
10226;SDS011;15634;48.766;2.272;2023-12-22T09:50:52;6.82;;;2.33;;
10226;SDS011;15634;48.766;2.272;2023-12-22T09:53:18;5.00;;;2.05;;
10226;SDS011;15634;48.766;2.272;2023-12-22T09:55:45;5.35;;;2.13;;
10226;SDS011;15634;48.766;2.272;2023-12-22T09:58:12;5.00;;;1.73;;
10226;SDS011;15634;48.766;2.272;2023-12-22T10:00:39;5.32;;;1.70;;
10226;SDS011;15634;48.766;2.272;2023-12-22T10:03:06;4.50;;;1.30;;
10226;SDS011;15634;48.766;2.272;2023-12-22T10:05:34;4.32;;;1.88;;
10226;SDS011;15634;48.766;2.272;2023-12-22T10:08:00;4.63;;;1.80;;
10226;SDS011;15634;48.766;2.272;2023-12-22T10:10:29;6.15;;;2.03;;
10226;SDS011;15634;48.766;2.272;2023-12-22T10:12:56;3.85;;;1.45;;
10226;SDS011;15634;48.766;2.272;2023-12-22T10:15:22;4.97;;;1.70;;
10226;SDS011;15634;48.766;2.272;2023-12-22T10:17:51;4.88;;;1.58;;
10226;SDS011;15634;48.766;2.272;2023-12-22T10:20:17;2.88;;;1.40;;
10226;SDS011;15634;48.766;2.272;2023-12-22T10:22:43;5.55;;;1.67;;
10226;SDS011;15634;48.766;2.272;2023-12-22T10:25:09;6.40;;;1.90;;
10226;SDS011;15634;48.766;2.272;2023-12-22T10:27:38;6.25;;;1.77;;
10226;SDS011;15634;48.766;2.272;2023-12-22T10:30:07;7.63;;;2.27;;
10226;SDS011;15634;48.766;2.272;2023-12-22T10:32:39;4.95;;;2.33;;
10226;SDS011;15634;48.766;2.272;2023-12-22T10:35:07;6.78;;;2.05;;
10226;SDS011;15634;48.766;2.272;2023-12-22T10:37:33;7.00;;;2.30;;
10226;SDS011;15634;48.766;2.272;2023-12-22T10:39:59;7.28;;;2.40;;
10226;SDS011;15634;48.766;2.272;2023-12-22T10:42:25;6.97;;;2.33;;
10226;SDS011;15634;48.766;2.272;2023-12-22T10:44:51;3.72;;;1.83;;
10226;SDS011;15634;48.766;2.272;2023-12-22T10:47:18;4.72;;;1.95;;
10226;SDS011;15634;48.766;2.272;2023-12-22T10:49:46;3.72;;;1.98;;
10226;SDS011;15634;48.766;2.272;2023-12-22T10:52:15;8.52;;;2.35;;
10226;SDS011;15634;48.766;2.272;2023-12-22T10:54:45;5.43;;;1.92;;
10226;SDS011;15634;48.766;2.272;2023-12-22T10:57:11;4.25;;;1.90;;
10226;SDS011;15634;48.766;2.272;2023-12-22T10:59:45;7.70;;;2.17;;
10226;SDS011;15634;48.766;2.272;2023-12-22T11:02:18;9.90;;;2.53;;
10226;SDS011;15634;48.766;2.272;2023-12-22T11:04:47;8.00;;;2.45;;
10226;SDS011;15634;48.766;2.272;2023-12-22T11:07:13;7.15;;;2.60;;
10226;SDS011;15634;48.766;2.272;2023-12-22T11:09:40;13.30;;;2.90;;
10226;SDS011;15634;48.766;2.272;2023-12-22T11:12:07;7.70;;;2.92;;
10226;SDS011;15634;48.766;2.272;2023-12-22T11:14:33;5.47;;;2.47;;
10226;SDS011;15634;48.766;2.272;2023-12-22T11:17:00;9.00;;;2.33;;
10226;SDS011;15634;48.766;2.272;2023-12-22T11:19:26;10.68;;;3.00;;
10226;SDS011;15634;48.766;2.272;2023-12-22T11:21:52;6.18;;;2.28;;
10226;SDS011;15634;48.766;2.272;2023-12-22T11:24:19;11.45;;;2.75;;
10226;SDS011;15634;48.766;2.272;2023-12-22T11:26:46;9.95;;;2.70;;
10226;SDS011;15634;48.766;2.272;2023-12-22T11:29:14;12.02;;;2.45;;
10226;SDS011;15634;48.766;2.272;2023-12-22T11:31:40;7.80;;;3.05;;
10226;SDS011;15634;48.766;2.272;2023-12-22T11:34:06;11.50;;;2.95;;
10226;SDS011;15634;48.766;2.272;2023-12-22T11:36:33;7.25;;;2.47;;
10226;SDS011;15634;48.766;2.272;2023-12-22T11:39:00;12.85;;;3.22;;
10226;SDS011;15634;48.766;2.272;2023-12-22T11:41:27;12.88;;;2.67;;
10226;SDS011;15634;48.766;2.272;2023-12-22T11:43:57;9.40;;;3.13;;
10226;SDS011;15634;48.766;2.272;2023-12-22T11:46:24;12.68;;;2.65;;
10226;SDS011;15634;48.766;2.272;2023-12-22T11:48:50;6.45;;;2.58;;
10226;SDS011;15634;48.766;2.272;2023-12-22T11:51:17;8.25;;;2.65;;
10226;SDS011;15634;48.766;2.272;2023-12-22T11:53:43;7.75;;;2.83;;
10226;SDS011;15634;48.766;2.272;2023-12-22T11:56:09;15.68;;;3.35;;
10226;SDS011;15634;48.766;2.272;2023-12-22T12:01:05;15.60;;;2.97;;
10226;SDS011;15634;48.766;2.272;2023-12-22T12:03:31;9.25;;;3.08;;
10226;SDS011;15634;48.766;2.272;2023-12-22T12:08:35;12.55;;;4.32;;
10226;SDS011;15634;48.766;2.272;2023-12-22T12:11:01;15.50;;;4.95;;
10226;SDS011;15634;48.766;2.272;2023-12-22T12:13:28;14.75;;;3.63;;
10226;SDS011;15634;48.766;2.272;2023-12-22T12:15:56;13.20;;;3.65;;
10226;SDS011;15634;48.766;2.272;2023-12-22T12:18:24;13.55;;;3.78;;
10226;SDS011;15634;48.766;2.272;2023-12-22T12:20:52;14.68;;;3.63;;
10226;SDS011;15634;48.766;2.272;2023-12-22T12:23:18;14.18;;;3.92;;
10226;SDS011;15634;48.766;2.272;2023-12-22T12:25:44;11.68;;;3.63;;
10226;SDS011;15634;48.766;2.272;2023-12-22T12:28:10;16.50;;;4.03;;
10226;SDS011;15634;48.766;2.272;2023-12-22T12:30:37;12.63;;;4.43;;
10226;SDS011;15634;48.766;2.272;2023-12-22T12:33:07;16.63;;;4.13;;
10226;SDS011;15634;48.766;2.272;2023-12-22T12:35:33;13.45;;;4.00;;
10226;SDS011;15634;48.766;2.272;2023-12-22T12:38:02;13.13;;;4.05;;
10226;SDS011;15634;48.766;2.272;2023-12-22T12:40:28;18.00;;;4.53;;
10226;SDS011;15634;48.766;2.272;2023-12-22T12:42:54;14.13;;;4.90;;
10226;SDS011;15634;48.766;2.272;2023-12-22T12:45:24;14.05;;;4.22;;
10226;SDS011;15634;48.766;2.272;2023-12-22T12:48:00;13.82;;;3.95;;
10226;SDS011;15634;48.766;2.272;2023-12-22T12:50:27;16.20;;;3.72;;
10226;SDS011;15634;48.766;2.272;2023-12-22T12:52:59;15.00;;;4.07;;
10226;SDS011;15634;48.766;2.272;2023-12-22T12:55:25;20.50;;;3.80;;
10226;SDS011;15634;48.766;2.272;2023-12-22T12:57:51;18.60;;;4.32;;
10226;SDS011;15634;48.766;2.272;2023-12-22T13:00:27;13.57;;;3.95;;
10226;SDS011;15634;48.766;2.272;2023-12-22T13:02:58;20.80;;;3.97;;
10226;SDS011;15634;48.766;2.272;2023-12-22T13:05:25;17.42;;;3.63;;
10226;SDS011;15634;48.766;2.272;2023-12-22T13:07:51;19.38;;;4.00;;
10226;SDS011;15634;48.766;2.272;2023-12-22T13:10:23;15.85;;;4.43;;
10226;SDS011;15634;48.766;2.272;2023-12-22T13:12:50;14.75;;;3.92;;
10226;SDS011;15634;48.766;2.272;2023-12-22T13:15:19;17.33;;;4.25;;
10226;SDS011;15634;48.766;2.272;2023-12-22T13:17:45;13.18;;;3.20;;
10226;SDS011;15634;48.766;2.272;2023-12-22T13:20:11;10.73;;;3.65;;
10226;SDS011;15634;48.766;2.272;2023-12-22T13:22:37;17.58;;;3.80;;
10226;SDS011;15634;48.766;2.272;2023-12-22T13:25:03;17.02;;;4.15;;
10226;SDS011;15634;48.766;2.272;2023-12-22T13:27:30;13.68;;;3.50;;
10226;SDS011;15634;48.766;2.272;2023-12-22T13:29:56;12.60;;;3.45;;
10226;SDS011;15634;48.766;2.272;2023-12-22T13:32:21;16.88;;;3.88;;
10226;SDS011;15634;48.766;2.272;2023-12-22T13:34:52;12.73;;;3.53;;
10226;SDS011;15634;48.766;2.272;2023-12-22T13:37:19;14.45;;;3.60;;
10226;SDS011;15634;48.766;2.272;2023-12-22T13:39:46;12.85;;;3.30;;
10226;SDS011;15634;48.766;2.272;2023-12-22T13:42:15;13.10;;;3.22;;
10226;SDS011;15634;48.766;2.272;2023-12-22T13:44:43;16.08;;;3.35;;
10226;SDS011;15634;48.766;2.272;2023-12-22T13:47:09;13.30;;;3.30;;
10226;SDS011;15634;48.766;2.272;2023-12-22T13:49:35;12.80;;;3.47;;
10226;SDS011;15634;48.766;2.272;2023-12-22T13:52:01;14.82;;;3.22;;
10226;SDS011;15634;48.766;2.272;2023-12-22T13:54:34;16.00;;;3.60;;
10226;SDS011;15634;48.766;2.272;2023-12-22T13:57:00;15.48;;;3.53;;
10226;SDS011;15634;48.766;2.272;2023-12-22T13:59:30;12.95;;;3.35;;
10226;SDS011;15634;48.766;2.272;2023-12-22T14:01:57;15.35;;;3.70;;
10226;SDS011;15634;48.766;2.272;2023-12-22T14:04:23;11.95;;;3.35;;
10226;SDS011;15634;48.766;2.272;2023-12-22T14:06:49;11.75;;;3.67;;
10226;SDS011;15634;48.766;2.272;2023-12-22T14:09:15;15.73;;;3.40;;
10226;SDS011;15634;48.766;2.272;2023-12-22T14:11:44;14.02;;;3.70;;
10226;SDS011;15634;48.766;2.272;2023-12-22T14:14:09;15.32;;;3.53;;
10226;SDS011;15634;48.766;2.272;2023-12-22T14:16:37;11.65;;;3.35;;
10226;SDS011;15634;48.766;2.272;2023-12-22T14:19:03;15.25;;;3.22;;
10226;SDS011;15634;48.766;2.272;2023-12-22T14:21:28;15.02;;;3.65;;
10226;SDS011;15634;48.766;2.272;2023-12-22T14:23:54;16.45;;;3.60;;
10226;SDS011;15634;48.766;2.272;2023-12-22T14:26:20;10.90;;;3.83;;
10226;SDS011;15634;48.766;2.272;2023-12-22T14:28:46;15.05;;;4.13;;
10226;SDS011;15634;48.766;2.272;2023-12-22T14:31:15;14.65;;;3.53;;
10226;SDS011;15634;48.766;2.272;2023-12-22T14:33:42;12.98;;;3.28;;
10226;SDS011;15634;48.766;2.272;2023-12-22T14:36:08;16.42;;;3.88;;
10226;SDS011;15634;48.766;2.272;2023-12-22T14:38:33;18.08;;;3.95;;
10226;SDS011;15634;48.766;2.272;2023-12-22T14:40:59;16.38;;;3.78;;
10226;SDS011;15634;48.766;2.272;2023-12-22T14:43:25;13.48;;;4.05;;
10226;SDS011;15634;48.766;2.272;2023-12-22T14:45:51;13.68;;;3.67;;
10226;SDS011;15634;48.766;2.272;2023-12-22T14:48:16;19.20;;;4.10;;